AirNav   Air Wisconsin pilot careers
 
 662 users online  

KVLL Oakland/Troy Airport
Troy, Michigan, USA

GOING TO TROY?


FAA INFORMATION EFFECTIVE 19 JULY 2018

Location

FAA Identifier: VLL
Lat/Long: 42-32-34.6000N / 083-10-40.4000W
42-32.576667N / 083-10.673333W
42.5429444 / -83.1778889
(estimated)
Elevation: 727.2 ft. / 221.7 m (surveyed)
Variation: 06W (1995)
From city: 2 miles E of TROY, MI
Time zone: UTC -4 (UTC -5 during Standard Time)
Zip code: 48084

Airport Operations

Airport use: Open to the public
Control tower: no
ARTCC: CLEVELAND CENTER
FSS: LANSING FLIGHT SERVICE STATION
NOTAMs facility: VLL (NOTAM-D service available)
Attendance: 0800-1800
Pattern altitude: 1727.2 ft. MSL
Wind indicator: lighted
Segmented circle: no
Lights: ACTVT MIRL RY 09/27 & PAPI RYS 09 & 27 - CTAF.
Beacon: white-green (lighted land airport)
Operates sunset to sunrise.
Landing fee: yes

Airport Communications

CTAF/UNICOM: 123.05
WX AWOS-3: 119.475 (248-288-4649)
DETROIT APPROACH: 134.3
DETROIT DEPARTURE: 134.3
BARII DP: 134.3
CCOBB DP: 134.3
CLVIN DP: 134.3
HHOWE DP: 134.3
KAYLN DP: 134.3
LIDDS DP: 134.3
MIGGY DP: 134.3
PAVYL DP: 134.3
SNDRS DP: 134.3
TRMML DP: 134.3
ZETTR DP: 134.3
WX ASOS at DET (11 nm SE): PHONE 313-371-9696
WX ASOS at PTK (13 nm NW): 125.025 (248-886-8551)

Nearby radio navigation aids

VOR radial/distance  VOR name  Freq  Var
PSIr124/18.3PONTIAC VORTAC111.0003W
SVMr069/20.1SALEM VORTAC114.3003W
DXOr029/21.5DETROIT VOR/DME113.4006W
YQGr325/23.4WINDSOR VOR/DME113.8006W
CRLr026/32.2CARLETON VOR/DME115.7003W
FNTr141/35.7FLINT VORTAC116.9006W

 
NDB name  Hdg/Dist  Freq  Var  ID
MADDS313/4.733805WDE -.. .
CARGL324/14.923005WVQ ...- --.-
GROSSE ILE005/26.541907WRYS .-. -.-- ...

Airport Services

Fuel available: 100LL JET-A
Parking: tiedowns
Airframe service: NONE
Powerplant service: NONE

Runway Information

Runway 9/27

Dimensions: 3549 x 60 ft. / 1082 x 18 m
Surface: asphalt, in fair condition
Runway edge lights: medium intensity
RUNWAY 9  RUNWAY 27
Latitude: 42-32.575973N42-32.578848N
Longitude: 083-11.068925W083-10.278788W
Elevation: 727.0 ft.701.0 ft.
Gradient: 0.7% DOWN0.7% UP
Traffic pattern: leftleft
Runway heading: 096 magnetic, 090 true276 magnetic, 270 true
Markings: nonprecision, in good conditionnonprecision, in good condition
Visual slope indicator: 2-light PAPI on right (3.75 degrees glide path)2-light PAPI on left (3.75 degrees glide path)
Runway end identifier lights: nono
Touchdown point: yes, no lightsyes, no lights
Obstructions: 19 ft. trees, 542 ft. from runway, 18:1 slope to clear17 ft. bldg, lighted, 540 ft. from runway, 20:1 slope to clear

Airport Ownership and Management from official FAA records

Ownership: Publicly-owned
Owner: OAKLAND COUNTY
6500 HIGHLAND ROAD
WATERFORD, MI 48327
Phone (248) 288-6100
ARPT PHONE 248-666-3900
Manager: CHERYL BUSH
6500 HIGHLAND RD
WATERFORD, MI 48327
Phone 248-666-3900

Airport Operational Statistics

Aircraft based on the field: 115
Single engine airplanes: 104
Multi engine airplanes: 7
Helicopters: 3
Ultralights: 1
    
Aircraft operations: avg 82/day *
50% transient general aviation
50% local general aviation
* for 12-month period ending 31 December 2014

Additional Remarks

DEER AND BIRDS ON & INVOF ARPT.
RY 09 +3 FT BERM 316 FT FM THLD.
NO TGL OR PRACTICE TFC PATTERNS.
FOR CD CTC DETROIT APCH AT 800-499-8181.

Instrument Procedures

NOTE: All procedures below are presented as PDF files. If you need a reader for these files, you should download the free Adobe Reader.

NOT FOR NAVIGATION. Please procure official charts for flight.
FAA instrument procedures published for use from 19 July 2018 at 0901Z to 16 August 2018 at 0900Z.

 
STARs - Standard Terminal Arrivals
CRUXX SIX **CHANGED**   download (248KB)
FOREY ONE (RNAV) **NEW**   download (151KB)
LLEEO TWO **CHANGED**   download (321KB)
OKLND ONE (RNAV) **NEW**   download (129KB)
PETTE ONE (RNAV) **NEW**   download (153KB)
RRALF ONE (RNAV) **NEW**   download (143KB)
SPRTN THREE **CHANGED**   download (158KB)
SWWAN TWO **CHANGED**   download (149KB)
 
IAPs - Instrument Approach Procedures
RNAV (GPS) RWY 09 **CHANGED**   download (161KB)
 
Departure Procedures
BARII ONE (RNAV) **NEW**   download (140KB)
CCOBB ONE (RNAV) **NEW**   download (165KB)
CLVIN ONE (RNAV) **NEW**   download (149KB)
HHOWE ONE (RNAV) **NEW**   download (155KB)
KAYLN ONE (RNAV) **NEW**   download (159KB)
LIDDS ONE (RNAV) **NEW**   download (159KB)
MIGGY ONE (RNAV) **NEW**   download (170KB)
PAVYL ONE (RNAV) **NEW**   download (160KB)
SNDRS ONE (RNAV) **NEW**   download (172KB)
TRMML ONE (RNAV) **NEW**   download (142KB)
ZETTR ONE (RNAV) **NEW**   download (176KB)
NOTE: Special Take-Off Minimums/Departure Procedures apply   download (125KB)

Other nearby airports with instrument procedures:

KDET - Coleman A Young Municipal Airport (11 nm SE)
KPTK - Oakland County International Airport (13 nm NW)
KMTC - Selfridge Air National Guard Base (16 nm E)
1D2 - Canton-Plymouth-Mettetal Airport (17 nm SW)
57D - Ray Community Airport (17 nm NE)
D98 - Romeo State Airport (18 nm NE)
Y47 - Oakland Southwest Airport (20 nm W)
 
Loc | Ops | Rwys | IFR | FBO | Links
Com | Nav | Svcs | Stats | Notes


 
Area around KVLL (Oakland/Troy Airport)
 
Road maps at: MapQuest Bing Google
 
Aerial photo
WARNING: Photo may not be current or correct
Aerial photo of KVLL (Oakland/Troy Airport)
Photo by Jeff Schuster
Photo taken 29-Jun-2014
looking west.

Do you have a better or more recent aerial photo of Oakland/Troy Airport that you would like to share? If so, please send us your photo.

 
Sectional chart

 
Airport distance calculator
Flying to Oakland/Troy Airport? Find the distance to fly.

From to KVLL

Sunrise and sunset
Times for 15-Aug-2018
 Local
(UTC-4)
 Zulu
(UTC)
Morning civil twilight06:1010:10
Sunrise06:4010:40
Sunset20:3400:34
Evening civil twilight21:0401:04

Current date and time
Zulu (UTC)  15-Aug-2018 04:29:01
Local (UTC-4)  15-Aug-2018 00:29:01
 
METAR
KVLL 150415Z AUTO 27006KT 10SM CLR 27/17 A2998 RMK AO2 T02650170
KDET 
11nm SE 
150353Z 28005KT 10SM CLR 26/18 A2995 RMK AO2 SLPNO T02610183
KPTK 
13nm NW 
150353Z 27007KT 10SM SCT220 24/18 A2996 RMK AO2 SLP137 LAST T02390183
KMTC 
17nm E 
150256Z 24004KT 7SM FEW200 25/19 A2993 RMK AO2A SLP136 ALSTG/SLP ESTMD T02550187 52002 $
CYQG 
19nm SE 
150400Z 26008KT 12SM BKN280 23/19 A2995 RMK CI7 SLP138 DENSITY ALT 1700FT
KDTW 
20nm S 
150353Z 28007KT 8SM SCT250 25/18 A2997 RMK AO2 SLP143 T02500178
TAF
KDET 
11nm SE 
141720Z 1418/1518 26009KT P6SM FEW060 FM150200 VRB04KT P6SM BKN250 FM151500 22008KT P6SM SCT045 BKN200
KPTK 
13nm NW 
141720Z 1418/1518 27009KT P6SM FEW050 FM150200 27004KT P6SM BKN250 FM151500 22008KT P6SM SCT045 BKN200
KMTC 
17nm E 
150100Z 1501/1607 27009KT 9999 SCT050 SCT200 QNH2990INS BECMG 1517/1518 24009KT 9999 BKN050 BKN250 QNH2995INS BECMG 1603/1604 20012KT 8000 -RA SCT015 BKN025 QNH2997INS TX30/1517Z TN21/1510Z LAST NO AMDS AFT 1503 NEXT 1509
CYQG 
19nm SE 
141738Z 1418/1518 29010KT P6SM SCT050 FM142300 28008KT P6SM SKC BECMG 1512/1514 24010KT RMK NXT FCST BY 150000Z
KDTW 
20nm S 
141720Z 1418/1524 26009KT P6SM FEW060 FM150200 VRB04KT P6SM BKN250 FM151500 22008KT P6SM SCT045 BKN200
NOTAMs
Click for the latest NOTAMs
NOTAMs are issued by the DoD/FAA and will open in a separate window not controlled by AirNav.

 

 
 

FBO, Fuel Providers, and Aircraft Ground Support

  
 Business Name 
 
 Contact 
 
 Services / Description 
 
Fuel Prices
 
Comments
  
JDS Pump-N-Go 248-288-6100
[email]
Aviation fuel, Aircraft parking (ramp or tiedown), Hangar leasing / sales

More info about JDS Pump-N-Go
Avfuel
100LL Jet A
SS $5.10 $4.70 
 Updated 10-Aug-2018
 
   write
24HRFUEL.com 248-655-1474
no information available

If you are affiliated with 24HRFUEL.com and would like to show here your services, contact info, web link, logo, and more, click here
100LL Jet A
SS $5.20 $3.50 
 Updated 31-Jul-2018
 
   2 read write
SS=Self service
Update Fuel Prices
 

Would you like to see your business listed on this page?

 If your business provides an interesting product or service to pilots, flight crews, aircraft, or users of the Oakland/Troy Airport, you should consider listing it here.  To start the listing process, click on the button below
 
Add a business
 

Other Pages about Oakland/Troy Airport

Oakland/Troy Airport Website
Page from the Michigan Airport Directory (PDF)
 
Update a link
 
Copyright © AirNav, LLC. All rights reserved. Privacy Policy  Contact